Time;durP1;ratioP1;P1;durP2;ratioP2;P2;SDS_P1;SDS_P2;PMS_P1;PMS_P2;Temp;Humidity;BMP_temperature;BMP_pressure;BME280_temperature;BME280_humidity;BME280_pressure;Samples;Min_cycle;Max_cycle;Signal;HPM_P1;HPM_P2
2021/07/05 00:00:33;;;;;;;7.05;4.57;;;16.80;99.90;;;15.52;100.00;100677.97;5003030;28;20039;-75
2021/07/05 00:02:58;;;;;;;8.60;4.93;;;16.70;99.90;;;15.50;100.00;100682.53;5022344;28;20040;-75
2021/07/05 00:05:25;;;;;;;8.65;4.65;;;16.70;99.90;;;15.49;100.00;100684.34;5019627;28;20134;-75
2021/07/05 00:07:51;;;;;;;10.85;5.07;;;16.70;99.90;;;15.46;100.00;100678.41;5031338;28;20087;-75
2021/07/05 00:10:26;;;;;;;11.55;4.75;;;16.60;99.90;;;15.50;100.00;100682.53;5029737;28;20075;-75
2021/07/05 00:12:54;;;;;;;8.05;4.63;;;16.70;99.90;;;15.57;100.00;100678.50;5020929;28;20469;-75
2021/07/05 00:15:27;;;;;;;6.47;4.78;;;16.70;99.90;;;15.55;100.00;100680.41;5035040;28;20070;-75
2021/07/05 00:17:57;;;;;;;11.00;4.85;;;16.80;99.90;;;15.60;100.00;100673.00;5022031;28;20124;-75
2021/07/05 00:20:24;;;;;;;8.25;5.10;;;16.80;99.90;;;15.58;100.00;100681.06;5021983;28;20415;-75
2021/07/05 00:22:51;;;;;;;8.95;4.93;;;16.70;99.90;;;15.59;100.00;100685.44;5020905;28;20051;-75
2021/07/05 00:25:18;;;;;;;7.13;4.38;;;16.80;99.90;;;15.62;100.00;100676.41;5003510;28;20062;-75
2021/07/05 00:27:44;;;;;;;9.80;5.00;;;16.80;99.90;;;15.59;100.00;100676.59;5020585;28;20040;-75
2021/07/05 00:30:14;;;;;;;7.18;4.40;;;16.80;99.90;;;15.56;100.00;100682.97;5012714;28;20112;-75
2021/07/05 00:32:40;;;;;;;6.68;4.65;;;16.80;99.90;;;15.55;100.00;100686.59;5003289;28;20025;-75
2021/07/05 00:35:07;;;;;;;8.75;4.53;;;16.70;99.90;;;15.54;100.00;100676.06;5013211;28;20059;-75
2021/07/05 00:37:33;;;;;;;7.30;4.43;;;16.70;99.90;;;15.58;100.00;100678.41;5027041;28;20029;-75
2021/07/05 00:39:59;;;;;;;6.15;4.57;;;16.80;99.90;;;15.55;100.00;100678.63;5021753;28;20111;-75
2021/07/05 00:42:24;;;;;;;5.63;4.35;;;16.70;99.90;;;15.50;100.00;100671.94;5020009;28;20527;-75
2021/07/05 00:44:51;;;;;;;8.95;4.82;;;16.70;99.90;;;15.52;100.00;100676.16;5019994;28;20099;-75
2021/07/05 00:47:17;;;;;;;8.68;5.10;;;16.70;99.90;;;15.48;100.00;100682.63;5036537;28;20078;-75
2021/07/05 00:49:43;;;;;;;8.23;5.07;;;16.60;99.90;;;15.46;100.00;100675.75;5022933;28;20576;-75
2021/07/05 00:52:09;;;;;;;7.97;4.78;;;16.60;99.90;;;15.43;100.00;100671.50;5005548;28;20039;-75
2021/07/05 00:54:36;;;;;;;7.53;5.07;;;16.60;99.90;;;15.49;100.00;100675.56;5021234;28;20071;-75
2021/07/05 00:57:03;;;;;;;11.77;5.13;;;16.70;99.90;;;15.54;100.00;100671.59;5010450;28;20029;-75
2021/07/05 00:59:30;;;;;;;10.27;5.45;;;16.70;99.90;;;15.57;100.00;100667.91;5021544;28;20030;-75
2021/07/05 01:01:56;;;;;;;7.75;5.00;;;16.70;99.90;;;15.53;100.00;100661.97;5021788;28;20091;-75
2021/07/05 01:04:22;;;;;;;10.50;5.22;;;16.70;99.90;;;15.50;100.00;100656.00;5002723;28;20097;-75
2021/07/05 01:06:48;;;;;;;9.98;4.88;;;16.60;99.90;;;15.49;100.00;100654.31;5021638;28;20130;-75
2021/07/05 01:09:14;;;;;;;7.22;4.88;;;16.60;99.90;;;15.42;100.00;100647.72;5003371;28;20056;-75
2021/07/05 01:11:40;;;;;;;7.95;5.40;;;16.60;99.90;;;15.36;100.00;100649.84;5022333;28;20537;-75
2021/07/05 01:14:06;;;;;;;7.95;5.10;;;16.60;99.90;;;15.38;100.00;100647.94;5002765;28;20059;-75
2021/07/05 01:16:32;;;;;;;11.52;5.45;;;16.60;99.90;;;15.40;100.00;100655.81;5032089;28;20066;-75
2021/07/05 01:18:58;;;;;;;9.20;5.47;;;16.60;99.90;;;15.38;100.00;100652.41;5003092;28;20124;-74
2021/07/05 01:21:24;;;;;;;12.27;5.50;;;16.50;99.90;;;15.33;100.00;100657.16;5003487;28;20043;-75
2021/07/05 01:23:50;;;;;;;8.75;5.45;;;16.50;99.90;;;15.27;100.00;100649.59;5021865;28;20025;-75
2021/07/05 01:26:16;;;;;;;6.95;5.10;;;16.40;99.90;;;15.21;100.00;100648.22;5010245;28;20068;-75
2021/07/05 01:28:42;;;;;;;12.27;5.22;;;16.40;99.90;;;15.21;100.00;100655.34;5023907;28;20071;-75
2021/07/05 01:31:07;;;;;;;7.22;5.25;;;16.40;99.90;;;15.17;100.00;100647.56;5024051;28;20058;-75
2021/07/05 01:33:33;;;;;;;8.13;5.80;;;16.30;99.90;;;15.15;100.00;100638.03;5020200;28;20182;-75
2021/07/05 01:35:59;;;;;;;8.68;5.32;;;16.30;99.90;;;15.13;100.00;100642.59;5008747;28;21197;-75
2021/07/05 01:38:25;;;;;;;12.45;5.78;;;16.30;99.90;;;15.11;100.00;100639.19;5006721;28;20071;-75
2021/07/05 01:41:01;;;;;;;12.85;5.85;;;16.30;99.90;;;15.06;100.00;100630.69;5009181;28;20032;-75
2021/07/05 01:43:28;;;;;;;9.77;6.45;;;16.20;99.90;;;15.00;100.00;100636.41;5036814;28;20062;-75
2021/07/05 01:45:55;;;;;;;13.02;6.03;;;16.20;99.90;;;14.96;100.00;100630.44;5009465;28;20082;-75
2021/07/05 01:48:22;;;;;;;10.63;6.25;;;16.10;99.90;;;14.86;100.00;100627.56;5015149;28;20059;-75
2021/07/05 01:50:48;;;;;;;19.20;5.85;;;16.10;99.90;;;14.85;100.00;100632.97;5008823;28;20118;-75
2021/07/05 01:53:14;;;;;;;8.35;5.95;;;16.00;99.90;;;14.80;100.00;100630.63;5022731;28;20060;-75
2021/07/05 01:55:42;;;;;;;9.48;6.25;;;16.00;99.90;;;14.75;100.00;100622.09;5022828;28;20029;-75
2021/07/05 01:58:08;;;;;;;9.77;6.47;;;15.90;99.90;;;14.74;100.00;100625.72;4990044;28;20058;-75
2021/07/05 02:00:40;;;;;;;9.13;6.47;;;15.90;99.90;;;14.69;100.00;100630.47;5023124;28;20062;-75
2021/07/05 02:03:06;;;;;;;11.57;6.38;;;15.90;99.90;;;14.70;100.00;100624.22;5024454;28;20066;-75
2021/07/05 02:05:35;;;;;;;9.10;6.43;;;15.90;99.90;;;14.71;100.00;100626.78;5027941;28;20067;-75
2021/07/05 02:08:04;;;;;;;10.50;7.18;;;15.90;99.90;;;14.70;100.00;100627.72;5016782;28;20473;-75
2021/07/05 02:10:35;;;;;;;16.20;7.55;;;15.90;99.90;;;14.64;100.00;100630.75;5020966;28;20067;-75
2021/07/05 02:13:11;;;;;;;14.60;6.55;;;15.80;99.90;;;14.66;100.00;100628.00;5025101;28;20237;-75
2021/07/05 02:15:39;;;;;;;15.93;7.82;;;15.90;99.90;;;14.68;100.00;100626.13;5019790;28;20089;-75
2021/07/05 02:18:05;;;;;;;11.15;6.95;;;15.90;99.90;;;14.68;100.00;100628.75;5023809;28;20063;-75
2021/07/05 02:20:32;;;;;;;13.13;7.45;;;15.90;99.90;;;14.65;100.00;100631.63;5023239;28;20457;-75
2021/07/05 02:23:00;;;;;;;11.02;7.35;;;15.90;99.90;;;14.64;100.00;100630.75;5006748;28;20138;-75
2021/07/05 02:25:29;;;;;;;12.55;7.95;;;15.90;99.90;;;14.63;100.00;100630.88;5021251;28;20080;-75
2021/07/05 02:27:59;;;;;;;12.80;7.55;;;15.90;99.90;;;14.65;100.00;100627.16;5020977;28;20082;-75
2021/07/05 02:30:29;;;;;;;12.15;7.75;;;15.90;99.90;;;14.70;100.00;100621.56;5010563;28;20104;-75
2021/07/05 02:32:57;;;;;;;14.77;7.97;;;16.00;99.90;;;14.78;100.00;100624.56;5025396;28;20059;-75
2021/07/05 02:35:26;;;;;;;15.10;7.57;;;16.10;99.90;;;14.89;100.00;100626.50;5017506;28;20063;-75
2021/07/05 02:37:54;;;;;;;19.02;8.13;;;16.20;99.90;;;15.05;100.00;100628.97;5022447;28;20067;-75
2021/07/05 02:40:26;;;;;;;14.10;8.45;;;16.30;99.90;;;15.14;100.00;100631.00;5023958;28;20109;-75
2021/07/05 02:42:53;;;;;;;20.75;8.90;;;16.40;99.90;;;15.25;100.00;100628.50;5040424;28;21105;-75
2021/07/05 02:45:28;;;;;;;18.67;9.85;;;16.50;99.90;;;15.45;100.00;100636.91;5021475;28;20067;-75
2021/07/05 02:48:05;;;;;;;15.05;9.23;;;16.60;99.90;;;15.49;100.00;100635.75;4998443;28;20051;-75
2021/07/05 02:50:30;;;;;;;;;;;16.60;99.90;;;15.58;100.00;100632.44;4995694;28;20055;-75
2021/07/05 02:52:58;;;;;;;16.50;8.88;;;16.70;99.90;;;15.65;100.00;100632.88;5024632;28;19935;-75
2021/07/05 02:55:24;;;;;;;19.27;9.52;;;16.80;99.90;;;15.77;100.00;100635.56;5012550;28;20470;-75
2021/07/05 02:57:51;;;;;;;11.32;8.43;;;16.90;99.90;;;15.82;100.00;100629.94;5023364;28;20063;-75
2021/07/05 03:00:29;;;;;;;16.38;9.50;;;17.00;99.90;;;15.86;100.00;100635.88;5007728;28;20085;-75
2021/07/05 03:02:56;;;;;;;13.10;9.00;;;17.00;99.90;;;15.90;100.00;100642.69;5022588;28;20059;-74
2021/07/05 03:05:26;;;;;;;15.60;8.73;;;17.10;99.90;;;15.96;100.00;100634.25;5019908;28;20158;-75
2021/07/05 03:07:53;;;;;;;15.80;9.25;;;17.20;99.90;;;16.01;100.00;100637.44;5012174;28;20029;-75
2021/07/05 03:10:27;;;;;;;15.00;8.88;;;17.20;99.90;;;16.10;100.00;100643.91;5005842;28;20044;-75
2021/07/05 03:12:54;;;;;;;16.90;9.13;;;17.30;99.90;;;16.17;100.00;100640.69;5023615;28;20027;-75
2021/07/05 03:15:21;;;;;;;17.45;9.25;;;17.40;99.90;;;16.23;100.00;100642.06;5021643;28;20124;-75
2021/07/05 03:17:48;;;;;;;19.10;9.05;;;17.40;99.90;;;16.32;100.00;100643.22;4996479;28;20022;-75
2021/07/05 03:20:19;;;;;;;14.27;8.73;;;17.50;99.90;;;16.37;100.00;100636.63;5014204;28;20067;-75
2021/07/05 03:22:48;;;;;;;16.70;9.15;;;17.60;99.90;;;16.45;100.00;100638.72;5018313;28;20558;-75
2021/07/05 03:25:18;;;;;;;15.48;8.65;;;17.70;99.90;;;16.58;100.00;100638.66;5007622;28;20040;-75
2021/07/05 03:27:45;;;;;;;15.23;8.82;;;17.80;99.90;;;16.66;100.00;100640.78;5006648;28;20362;-75
2021/07/05 03:30:14;;;;;;;16.70;8.60;;;17.90;99.90;;;16.75;100.00;100640.09;5007467;28;20074;-75
2021/07/05 03:32:41;;;;;;;16.00;8.20;;;17.90;99.90;;;16.77;100.00;100633.69;5004814;28;20033;-74
2021/07/05 03:35:12;;;;;;;15.52;8.40;;;18.00;99.90;;;16.94;100.00;100636.94;5020267;28;20041;-75
2021/07/05 03:37:39;;;;;;;13.88;8.43;;;18.00;99.90;;;16.98;100.00;100633.09;5005591;28;20083;-75
2021/07/05 03:40:11;;;;;;;12.70;8.35;;;18.20;99.90;;;17.13;100.00;100623.97;4997527;28;20033;-76
2021/07/05 03:42:37;;;;;;;14.90;7.30;;;18.30;99.90;;;17.18;100.00;100626.28;5023757;28;20021;-75
2021/07/05 03:45:09;;;;;;;13.00;7.90;;;18.50;99.90;;;17.37;100.00;100621.25;5006803;28;20026;-75
2021/07/05 03:47:36;;;;;;;13.05;8.45;;;19.00;99.90;;;17.96;100.00;100620.22;5031445;28;20382;-75
2021/07/05 03:50:09;;;;;;;12.57;7.53;;;19.90;99.90;;;18.72;100.00;100624.81;5023559;28;20032;-76
2021/07/05 03:52:36;;;;;;;13.07;6.32;;;20.60;99.90;;;19.08;99.71;100630.78;5020976;28;20436;-75
2021/07/05 03:55:10;;;;;;;9.73;5.82;;;20.60;99.90;;;18.86;99.86;100627.22;5030958;28;20055;-76
2021/07/05 03:57:36;;;;;;;8.60;6.20;;;20.30;99.90;;;18.58;100.00;100629.47;4990471;28;20044;-75
2021/07/05 04:00:11;;;;;;;10.82;6.68;;;20.00;99.90;;;18.43;100.00;100628.88;5020450;28;20124;-75
2021/07/05 04:02:37;;;;;;;9.40;6.65;;;19.70;99.90;;;18.20;100.00;100624.56;5011854;28;20025;-75
2021/07/05 04:05:05;;;;;;;11.23;7.20;;;19.50;99.90;;;18.03;100.00;100629.44;5012729;28;20018;-75
2021/07/05 04:07:31;;;;;;;9.70;7.03;;;19.30;99.90;;;17.97;100.00;100621.94;4977607;28;20032;-75
2021/07/05 04:09:57;;;;;;;10.30;7.07;;;19.30;99.90;;;17.93;100.00;100609.81;5001627;28;20025;-75
2021/07/05 04:12:24;;;;;;;11.32;7.47;;;19.20;99.90;;;17.96;100.00;100614.91;5012647;28;21034;-75
2021/07/05 04:14:50;;;;;;;13.57;7.95;;;19.20;99.90;;;17.99;100.00;100616.47;5021097;28;20025;-75
2021/07/05 04:17:17;;;;;;;13.27;7.35;;;19.20;99.90;;;17.99;100.00;100613.81;5036529;28;20053;-75
2021/07/05 04:19:46;;;;;;;10.57;7.20;;;19.20;99.90;;;18.02;100.00;100616.25;5022267;28;20446;-74
2021/07/05 04:22:20;;;;;;;14.02;8.48;;;19.30;99.90;;;18.10;100.00;100613.81;5022535;28;20091;-75
2021/07/05 04:24:46;;;;;;;17.50;8.32;;;19.30;99.90;;;18.14;100.00;100612.59;5021930;28;20511;-75
2021/07/05 04:27:15;;;;;;;14.27;8.38;;;19.30;99.90;;;18.21;100.00;100610.28;5021228;28;20040;-75
2021/07/05 04:29:42;;;;;;;14.88;8.75;;;19.40;99.90;;;18.20;100.00;100603.25;5021041;28;20067;-75
2021/07/05 04:32:10;;;;;;;14.52;8.65;;;19.30;99.90;;;18.20;100.00;100601.44;5012514;28;20100;-75
2021/07/05 04:34:36;;;;;;;18.50;7.50;;;19.40;99.90;;;18.28;100.00;100594.66;5000306;28;20028;-75
2021/07/05 04:37:03;;;;;;;14.98;8.23;;;19.50;99.90;;;18.38;100.00;100587.56;5021593;28;20120;-75
2021/07/05 04:39:29;;;;;;;13.32;8.05;;;19.50;99.90;;;18.41;100.00;100584.69;5009200;28;20048;-75
2021/07/05 04:41:55;;;;;;;13.80;8.93;;;19.60;99.90;;;18.44;100.00;100581.75;5019708;28;20111;-75
2021/07/05 04:44:23;;;;;;;16.17;8.73;;;19.60;99.90;;;18.47;100.00;100573.50;5037485;28;20063;-75
2021/07/05 04:46:50;;;;;;;13.57;8.18;;;19.70;99.90;;;18.58;100.00;100576.13;5004271;28;20500;-75
2021/07/05 04:49:18;;;;;;;11.50;8.07;;;19.70;99.90;;;18.59;100.00;100575.16;5016074;28;20483;-76
2021/07/05 04:51:45;;;;;;;12.15;7.82;;;19.80;99.90;;;18.69;100.00;100577.06;5020093;28;20116;-75
2021/07/05 04:54:12;;;;;;;12.00;7.95;;;19.80;99.90;;;18.75;100.00;100582.75;5020730;28;20033;-75
2021/07/05 04:56:38;;;;;;;11.70;7.75;;;19.90;99.90;;;18.87;100.00;100578.22;5020236;28;20025;-75
2021/07/05 04:59:06;;;;;;;13.90;8.10;;;20.00;99.90;;;19.06;100.00;100581.03;5004880;28;20044;-75
2021/07/05 05:01:34;;;;;;;11.60;7.68;;;20.20;99.90;;;19.10;100.00;100575.44;5004839;28;20028;-76
2021/07/05 05:04:00;;;;;;;12.55;8.13;;;20.20;99.90;;;19.27;100.00;100578.38;5009963;28;20056;-76
2021/07/05 05:06:26;;;;;;;12.07;7.70;;;20.30;99.90;;;19.36;100.00;100574.06;5020631;28;20127;-75
2021/07/05 05:08:53;;;;;;;11.45;7.85;;;20.30;99.90;;;19.34;100.00;100570.66;5010820;28;20493;-75
2021/07/05 05:11:20;;;;;;;11.60;8.10;;;20.30;99.90;;;19.26;100.00;100566.00;5015372;28;20037;-76
2021/07/05 05:13:46;;;;;;;30.95;7.80;;;20.50;99.90;;;19.47;100.00;100571.31;5005084;28;20029;-76
2021/07/05 05:16:12;;;;;;;11.40;7.68;;;20.60;99.90;;;19.66;100.00;100567.88;5003303;28;20040;-76
2021/07/05 05:18:40;;;;;;;10.77;6.88;;;20.70;99.90;;;19.62;100.00;100568.28;5030320;28;20084;-75
2021/07/05 05:21:07;;;;;;;12.68;7.30;;;20.90;99.90;;;20.00;99.35;100570.28;5012231;28;20509;-75
2021/07/05 05:23:33;;;;;;;15.75;7.15;;;21.40;99.90;;;20.49;95.79;100568.53;5011719;28;20396;-75
2021/07/05 05:25:59;;;;;;;9.45;7.00;;;22.20;99.90;;;21.52;92.10;100560.03;5018735;28;20481;-75
2021/07/05 05:28:25;;;;;;;10.45;6.57;;;22.60;99.90;;;21.60;89.87;100571.69;5017973;28;20025;-76
2021/07/05 05:30:51;;;;;;;12.05;7.32;;;22.90;99.90;;;21.90;87.72;100564.38;5010610;28;20108;-76
2021/07/05 05:33:17;;;;;;;13.48;7.05;;;22.50;99.90;;;21.18;90.48;100566.69;4993970;28;20037;-76
2021/07/05 05:35:43;;;;;;;12.02;7.13;;;22.00;99.90;;;20.78;93.40;100577.63;5032534;28;20493;-75
2021/07/05 05:38:10;;;;;;;9.07;6.75;;;22.20;99.90;;;21.60;90.74;100566.34;5015014;28;20033;-76
2021/07/05 05:40:36;;;;;;;10.40;6.68;;;22.80;99.90;;;22.14;88.30;100553.09;5019826;28;20094;-75
2021/07/05 05:43:04;;;;;;;13.25;6.75;;;23.10;99.90;;;22.65;87.17;100566.88;5020279;28;20031;-76
2021/07/05 05:45:30;;;;;;;10.65;6.68;;;23.50;99.90;;;22.13;88.27;100556.75;5012747;28;20036;-76
2021/07/05 05:47:56;;;;;;;9.70;6.57;;;23.10;99.90;;;22.04;87.93;100558.50;5021731;28;20037;-75
2021/07/05 05:50:22;;;;;;;10.15;6.93;;;23.10;99.90;;;22.16;87.88;100555.59;4976561;28;20469;-76
2021/07/05 05:52:48;;;;;;;8.57;6.47;;;23.30;99.90;;;22.39;87.52;100564.09;5008589;28;20496;-76
2021/07/05 05:55:14;;;;;;;9.38;6.78;;;22.80;99.90;;;21.78;91.13;100562.88;4977923;28;20033;-76
2021/07/05 05:57:40;;;;;;;8.60;6.78;;;22.80;99.90;;;21.60;91.34;100569.03;5022045;28;20027;-75
2021/07/05 06:00:21;;;;;;;10.82;7.28;;;22.60;99.90;;;21.74;91.23;100564.16;5008957;28;20068;-75
2021/07/05 06:02:49;;;;;;;10.95;7.97;;;22.60;99.90;;;21.78;90.91;100562.88;5000180;28;20060;-76
2021/07/05 06:05:16;;;;;;;11.25;7.47;;;22.80;99.90;;;21.86;90.18;100563.81;5018366;28;20022;-75
2021/07/05 06:07:51;;;;;;;11.05;7.20;;;22.60;99.90;;;21.71;90.90;100557.28;5015266;28;20036;-76
2021/07/05 06:10:25;;;;;;;11.60;7.95;;;22.70;99.90;;;21.84;89.80;100556.94;5013075;28;20052;-75
2021/07/05 06:12:53;;;;;;;12.52;8.77;;;22.60;99.90;;;21.58;90.86;100556.78;4997806;28;20053;-76
2021/07/05 06:15:22;;;;;;;14.25;7.90;;;22.70;99.90;;;21.82;89.29;100554.38;4996101;28;20037;-76
2021/07/05 06:17:51;;;;;;;13.00;7.90;;;22.80;99.90;;;21.93;87.60;100550.66;5015214;28;20033;-76
2021/07/05 06:20:18;;;;;;;13.70;8.15;;;22.90;99.90;;;21.83;88.83;100550.69;5013091;28;20128;-76
2021/07/05 06:22:53;;;;;;;12.82;7.63;;;22.90;99.90;;;21.99;87.42;100550.06;4986725;28;20017;-76
2021/07/05 06:25:20;;;;;;;12.77;8.50;;;22.80;99.90;;;22.06;86.63;100555.69;5020974;28;20121;-75
2021/07/05 06:27:47;;;;;;;14.98;8.90;;;22.90;99.90;;;21.99;87.50;100557.28;5008236;28;20032;-76
2021/07/05 06:30:14;;;;;;;12.70;8.23;;;22.80;99.90;;;22.17;87.65;100543.91;5019503;28;20033;-76
2021/07/05 06:32:41;;;;;;;14.20;8.63;;;23.10;99.90;;;22.52;85.45;100556.50;5040617;28;20519;-75
2021/07/05 06:35:12;;;;;;;11.57;7.88;;;23.30;99.90;;;22.50;85.66;100555.81;4992999;28;20033;-76
2021/07/05 06:37:38;;;;;;;15.35;8.25;;;23.20;99.90;;;22.25;84.37;100560.94;5011587;28;20033;-76
2021/07/05 06:40:07;;;;;;;14.75;8.48;;;23.10;99.90;;;22.29;85.48;100556.97;5023276;28;20523;-75
2021/07/05 06:42:35;;;;;;;11.40;7.75;;;23.20;99.90;;;22.49;85.07;100554.97;5022240;28;20029;-76
2021/07/05 06:45:01;;;;;;;11.60;7.72;;;23.40;99.90;;;22.79;83.78;100552.91;5014086;28;20061;-76
2021/07/05 06:47:27;;;;;;;15.05;8.32;;;23.20;99.90;;;22.10;86.50;100562.44;5038038;28;20056;-76
2021/07/05 06:49:53;;;;;;;10.77;7.43;;;23.00;99.90;;;22.16;87.19;100555.59;5011807;28;20049;-76
2021/07/05 06:52:19;;;;;;;12.05;8.13;;;23.00;99.90;;;22.00;87.38;100565.16;5007261;28;20112;-76
2021/07/05 06:54:45;;;;;;;15.48;8.68;;;23.00;99.90;;;22.04;87.73;100560.34;5022245;28;20452;-76
2021/07/05 06:57:29;;;;;;;12.32;7.82;;;23.40;99.90;;;23.06;84.19;100549.28;5006121;28;20075;-76
2021/07/05 06:59:57;;;;;;;10.80;7.90;;;23.80;99.90;;;22.97;83.40;100549.34;5010573;28;20052;-76
2021/07/05 07:02:24;;;;;;;11.23;7.40;;;23.90;99.90;;;23.21;83.60;100549.53;5020315;28;20029;-76
2021/07/05 07:04:50;;;;;;;12.75;8.10;;;24.40;99.90;;;23.94;79.76;100545.56;5012863;28;20124;-76
2021/07/05 07:07:17;;;;;;;9.95;7.72;;;25.40;99.90;;;25.36;73.23;100534.59;5012718;28;20041;-76
2021/07/05 07:09:43;;;;;;;10.63;7.90;;;25.80;99.90;;;25.08;73.08;100530.59;5008419;28;20028;-76
2021/07/05 07:12:09;;;;;;;14.45;8.05;;;26.00;99.90;;;25.25;70.77;100534.97;5037930;28;20044;-75
2021/07/05 07:14:35;;;;;;;10.60;7.55;;;25.80;99.90;;;24.60;74.02;100548.41;4997754;28;20032;-76
2021/07/05 07:17:05;;;;;;;11.60;7.82;;;25.40;99.90;;;24.39;73.17;100540.81;5008512;28;20029;-76
2021/07/05 07:19:32;;;;;;;13.98;7.13;;;25.10;99.90;;;24.19;75.24;100541.13;5012796;28;20041;-76
2021/07/05 07:22:02;;;;;;;10.35;7.13;;;24.90;99.90;;;23.98;74.70;100543.41;5022686;28;20025;-75
2021/07/05 07:24:28;;;;;;;10.60;7.75;;;24.70;99.90;;;23.39;74.73;100538.75;5019318;28;20469;-76
2021/07/05 07:26:54;;;;;;;11.32;7.97;;;24.00;99.90;;;22.76;78.43;100536.25;5020419;28;20039;-75
2021/07/05 07:29:20;;;;;;;11.38;7.90;;;23.80;99.90;;;22.76;80.22;100531.72;4997811;28;20036;-75
2021/07/05 07:31:46;;;;;;;12.50;9.00;;;23.70;99.90;;;22.80;80.16;100532.28;5013309;28;20388;-75
2021/07/05 07:34:12;;;;;;;12.63;8.55;;;23.60;99.90;;;22.73;81.88;100537.41;5021430;28;20064;-75
2021/07/05 07:36:39;;;;;;;11.15;7.72;;;23.60;99.90;;;22.78;81.99;100528.91;5021565;28;20118;-75
2021/07/05 07:39:23;;;;;;;13.73;8.73;;;23.90;99.90;;;23.19;79.09;100531.91;5020796;28;21248;-76
2021/07/05 07:41:49;;;;;;;13.93;8.70;;;24.00;99.90;;;23.46;79.56;100530.91;5022662;28;20374;-75
2021/07/05 07:44:15;;;;;;;14.50;7.95;;;24.30;99.90;;;24.00;77.31;100533.34;5031645;28;20040;-75
2021/07/05 07:46:41;;;;;;;11.77;7.82;;;24.80;99.90;;;24.37;73.38;100532.91;5004600;28;20017;-75
2021/07/05 07:49:09;;;;;;;16.15;8.48;;;25.00;99.90;;;25.06;71.37;100528.06;4996627;28;20027;-75
2021/07/05 07:51:35;;;;;;;12.35;8.02;;;25.80;99.90;;;25.62;66.40;100521.88;5031480;28;20212;-75
2021/07/05 07:54:04;;;;;;;13.18;7.35;;;25.80;99.90;;;25.56;68.26;100524.25;5014074;28;20101;-76
2021/07/05 07:56:31;;;;;;;13.88;8.15;;;25.90;99.90;;;24.92;69.50;100532.28;5013500;28;20041;-75
2021/07/05 07:58:59;;;;;;;12.15;7.80;;;25.20;99.90;;;24.34;72.35;100531.41;5005719;28;20064;-75
2021/07/05 08:01:27;;;;;;;9.98;7.72;;;25.30;99.90;;;25.09;70.30;100522.31;4991659;28;21588;-75
2021/07/05 08:03:57;;;;;;;11.40;7.85;;;25.70;99.90;;;25.62;69.04;100513.78;5016616;28;20044;-76
2021/07/05 08:06:24;;;;;;;11.73;7.95;;;26.30;99.90;;;25.76;67.96;100519.25;5012591;28;20029;-74
2021/07/05 08:08:52;;;;;;;13.38;7.75;;;25.80;99.90;;;25.14;70.11;100525.34;5004169;28;20033;-74
2021/07/05 08:11:20;;;;;;;9.93;6.93;;;26.20;99.90;;;25.69;66.87;100523.69;5014660;28;20392;-73
2021/07/05 08:13:46;;;;;;;9.43;6.90;;;26.00;99.90;;;25.08;64.03;100517.94;5013188;28;20079;-74
2021/07/05 08:16:12;;;;;;;9.77;6.90;;;25.60;99.90;;;24.91;65.58;102812.25;5021040;28;20032;-74
2021/07/05 08:18:39;;;;;;;13.93;6.88;;;25.30;99.90;;;24.69;67.27;100534.81;5021039;28;20036;-74
2021/07/05 08:21:05;;;;;;;10.15;6.03;;;25.40;99.90;;;24.66;63.66;100542.38;5021443;28;20017;-74
2021/07/05 08:23:31;;;;;;;9.40;5.57;;;25.20;99.90;;;24.43;61.63;100564.53;5011841;28;20034;-74
2021/07/05 08:25:59;;;;;;;9.38;6.65;;;25.20;99.90;;;24.51;63.46;100550.25;5002054;28;20048;-73
2021/07/05 08:28:25;;;;;;;7.10;5.45;;;25.10;99.90;;;24.46;64.86;100513.06;5001424;28;20059;-73
2021/07/05 08:30:57;;;;;;;9.05;6.05;;;25.30;99.90;;;24.51;63.60;100512.59;5021526;28;20025;-74
2021/07/05 08:33:24;;;;;;;8.75;6.63;;;25.00;99.90;;;24.16;64.64;100510.00;5035930;28;20029;-74
2021/07/05 08:35:50;;;;;;;11.35;7.00;;;25.00;99.90;;;24.53;63.62;100505.19;5005253;28;20041;-74
2021/07/05 08:38:16;;;;;;;9.13;6.70;;;25.30;99.90;;;25.04;61.48;100503.13;5019815;28;20039;-74
2021/07/05 08:40:43;;;;;;;10.00;7.35;;;25.80;99.90;;;25.46;60.52;100504.72;5021561;28;20038;-74
2021/07/05 08:43:09;;;;;;;8.40;6.53;;;26.00;99.90;;;25.37;60.73;100495.00;5018429;28;20436;-74
2021/07/05 08:45:41;;;;;;;10.07;6.57;;;26.10;99.90;;;25.30;61.39;100499.41;5020897;28;20084;-74
2021/07/05 08:48:09;;;;;;;11.15;6.75;;;26.60;99.90;;;26.21;56.47;100506.06;5008679;28;20060;-74
2021/07/05 08:50:35;;;;;;;12.98;6.68;;;26.70;99.90;;;25.81;59.66;100505.28;5003782;28;20373;-74
2021/07/05 08:53:01;;;;;;;8.95;5.80;;;26.90;99.90;;;26.54;57.00;100497.72;5008750;28;20018;-73
2021/07/05 08:55:29;;;;;;;8.00;6.35;;;27.20;99.90;;;26.46;57.37;100495.94;5015357;28;20552;-74
2021/07/05 08:57:55;;;;;;;11.52;6.00;;;27.60;99.90;;;27.27;54.64;100490.00;5001111;28;20033;-74
2021/07/05 09:00:39;;;;;;;8.63;6.28;;;27.40;99.90;;;26.28;58.96;100493.53;5017344;28;20057;-74
2021/07/05 09:03:31;;;;;;;8.43;6.45;;;27.00;99.90;;;25.83;60.24;101236.88;4976066;28;20033;-74
2021/07/05 09:06:30;;;;;;;8.73;6.15;;;27.00;99.90;;;26.11;57.02;101242.09;4981604;28;20127;-74
2021/07/05 09:09:04;;;;;;;11.55;5.68;;;27.00;99.90;;;26.51;57.59;102504.50;4977561;28;20060;-74
2021/07/05 09:11:55;;;;;;;7.93;5.80;;;27.30;99.90;;;26.93;53.92;101796.34;4971153;28;20052;-74
2021/07/05 09:14:38;;;;;;;8.23;5.53;;;27.50;99.90;;;26.58;54.49;101681.88;4970562;28;20034;-75
2021/07/05 09:17:14;;;;;;;6.57;5.43;;;27.20;99.90;;;26.56;54.23;101508.31;4967378;28;20033;-74
2021/07/05 09:20:10;;;;;;;8.30;5.28;;;27.50;99.90;;;27.09;54.49;101474.88;4959440;28;20076;-74
2021/07/05 09:23:24;;;;;;;8.60;5.32;;;28.20;99.90;;;28.13;48.74;101416.84;4968210;28;20060;-74
2021/07/05 09:26:33;;;;;;;12.00;5.53;;;29.00;99.90;;;28.96;49.61;101396.69;4956257;28;20378;-75
2021/07/05 09:29:58;;;;;;;6.75;4.97;;;29.70;99.90;;;29.53;45.86;101349.44;4974652;28;20042;-74
2021/07/05 09:33:19;;;;;;;8.38;4.82;;;30.20;99.90;;;29.98;44.32;101317.00;4968317;28;20033;-75
2021/07/05 09:36:12;;;;;;;6.03;4.93;;;29.70;99.90;;;29.09;46.93;101267.84;4964964;28;20383;-74
2021/07/05 09:39:28;;;;;;;8.70;5.88;;;29.40;98.70;;;28.37;45.25;101244.50;4962078;28;20510;-74
2021/07/05 09:42:17;;;;;;;8.38;4.70;;;29.00;99.10;;;28.22;46.85;101220.03;4956305;28;20115;-74
2021/07/05 09:45:41;;;;;;;9.95;4.72;;;28.70;99.90;;;28.25;47.89;101208.88;4929149;28;20358;-74
2021/07/05 09:48:50;;;;;;;7.10;4.50;;;28.70;99.90;;;28.27;47.09;101201.38;4977137;28;20088;-74
2021/07/05 09:52:31;;;;;;;7.97;4.85;;;28.60;99.30;;;28.38;46.23;101189.31;4972687;28;20040;-74
2021/07/05 09:55:42;;;;;;;7.43;4.93;;;28.70;99.90;;;28.18;48.47;101165.38;4986264;28;20041;-75
2021/07/05 09:59:25;;;;;;;7.20;5.25;;;28.60;99.10;;;27.67;48.45;101124.31;4975654;28;20060;-74
2021/07/05 10:02:53;;;;;;;5.45;4.82;;;28.40;99.90;;;27.64;48.86;101051.59;4990307;28;20543;-74
2021/07/05 10:06:25;;;;;;;7.20;5.17;;;28.30;99.90;;;27.69;50.65;101040.25;4981012;28;20412;-74
2021/07/05 10:09:50;;;;;;;7.55;5.03;;;28.40;99.90;;;27.77;50.11;101042.91;4978820;28;20025;-74
2021/07/05 10:13:34;;;;;;;7.13;5.03;;;28.40;99.90;;;27.76;48.99;101009.63;4980930;28;20036;-74
2021/07/05 10:21:10;;;;;;;6.05;5.00;;;28.90;99.90;;;28.66;48.30;107121.94;5009640;28;20037;-74
2021/07/05 10:24:53;;;;;;;9.63;5.20;;;29.10;99.10;;;28.76;46.21;106987.78;4975741;28;20566;-74
2021/07/05 10:28:22;;;;;;;12.52;5.22;;;29.20;99.00;;;28.54;47.91;103831.19;4976532;28;20037;-75
2021/07/05 10:31:46;;;;;;;8.35;5.60;;;28.80;99.90;;;27.97;47.72;102657.47;4971491;28;20784;-74